Time;durP1;ratioP1;P1;durP2;ratioP2;P2;SDS_P1;SDS_P2;PMS_P1;PMS_P2;Temp;Humidity;BMP_temperature;BMP_pressure;BME280_temperature;BME280_humidity;BME280_pressure;Samples;Min_cycle;Max_cycle;Signal;HPM_P1;HPM_P2
2021/07/27 00:00:33;;;;;;;9.65;3.97;;;21.70;81.70;;;;;;5119493;28;20031;-69
2021/07/27 00:03:00;;;;;;;11.93;4.00;;;21.70;83.10;;;;;;5119603;28;20030;-69
2021/07/27 00:05:26;;;;;;;13.73;4.60;;;21.70;85.00;;;;;;5119532;28;20020;-69
2021/07/27 00:07:52;;;;;;;12.32;4.72;;;21.60;85.50;;;;;;5119504;28;20023;-69
2021/07/27 00:10:18;;;;;;;13.13;5.63;;;21.50;86.70;;;;;;5119052;28;20327;-69
2021/07/27 00:12:43;;;;;;;10.70;4.57;;;21.40;86.40;;;;;;5119106;28;20028;-69
2021/07/27 00:15:10;;;;;;;8.27;4.20;;;21.10;86.40;;;;;;5119318;28;20024;-69
2021/07/27 00:17:35;;;;;;;8.43;4.40;;;21.00;86.00;;;;;;5118959;28;20023;-69
2021/07/27 00:20:01;;;;;;;11.40;4.20;;;20.90;86.00;;;;;;5118761;28;20034;-68
2021/07/27 00:22:27;;;;;;;15.30;5.03;;;21.00;86.10;;;;;;5118958;28;20016;-69
2021/07/27 00:24:53;;;;;;;10.35;4.38;;;21.10;86.40;;;;;;5119148;28;20028;-69
2021/07/27 00:27:20;;;;;;;17.50;5.03;;;21.10;84.80;;;;;;5118689;28;20032;-69
2021/07/27 00:29:45;;;;;;;9.18;3.65;;;21.20;85.00;;;;;;5118969;28;20030;-69
2021/07/27 00:32:11;;;;;;;10.15;4.13;;;21.30;82.90;;;;;;5118736;28;20028;-69
2021/07/27 00:34:37;;;;;;;9.55;4.15;;;21.30;83.00;;;;;;5118621;28;20027;-68
2021/07/27 00:37:03;;;;;;;8.38;3.75;;;21.40;84.50;;;;;;5118576;28;20039;-68
2021/07/27 00:39:29;;;;;;;13.23;4.93;;;21.40;84.00;;;;;;5118404;28;20044;-68
2021/07/27 00:41:54;;;;;;;8.45;4.00;;;21.40;83.30;;;;;;5118775;28;20112;-69
2021/07/27 00:44:20;;;;;;;8.18;3.90;;;21.30;84.20;;;;;;5118451;28;20400;-68
2021/07/27 00:46:46;;;;;;;8.90;4.15;;;21.20;85.40;;;;;;5118450;28;20023;-68
2021/07/27 00:49:12;;;;;;;7.65;3.80;;;21.10;85.40;;;;;;5118644;28;20028;-69
2021/07/27 00:51:39;;;;;;;10.40;4.40;;;21.00;86.60;;;;;;5118307;28;20130;-68
2021/07/27 00:54:06;;;;;;;10.43;4.30;;;20.90;86.30;;;;;;5118582;28;20027;-68
2021/07/27 00:56:33;;;;;;;13.85;4.32;;;20.90;85.40;;;;;;5118233;28;20195;-68
2021/07/27 00:58:59;;;;;;;9.63;4.32;;;21.00;85.90;;;;;;5118120;28;20034;-68
2021/07/27 01:01:25;;;;;;;11.02;4.22;;;21.00;85.90;;;;;;5118345;28;20023;-68
2021/07/27 01:03:50;;;;;;;12.55;4.00;;;21.10;86.30;;;;;;5118367;28;20042;-68
2021/07/27 01:06:16;;;;;;;9.68;4.50;;;21.00;83.70;;;;;;5118049;28;20027;-68
2021/07/27 01:08:43;;;;;;;11.25;4.28;;;21.00;83.70;;;;;;5118336;28;20023;-68
2021/07/27 01:11:09;;;;;;;7.28;4.35;;;21.00;83.50;;;;;;5118232;28;20024;-68
2021/07/27 01:13:34;;;;;;;12.43;4.60;;;21.00;83.30;;;;;;5117958;28;20027;-68
2021/07/27 01:16:05;;;;;;;9.52;4.28;;;21.10;83.50;;;;;;5118129;28;20032;-68
2021/07/27 01:18:38;;;;;;;6.30;4.35;;;21.20;84.40;;;;;;5118056;28;20036;-68
2021/07/27 01:40:01;;;;;;;12.45;3.72;;;20.70;85.80;;;;;;5116648;28;20137;-68
2021/07/27 01:42:26;;;;;;;7.93;3.90;;;20.70;84.90;;;;;;5117792;28;20036;-68
2021/07/27 01:44:52;;;;;;;13.20;4.30;;;20.80;85.50;;;;;;5117632;28;20165;-68
2021/07/27 01:47:19;;;;;;;9.98;3.78;;;20.80;85.10;;;;;;5117692;28;20027;-68
2021/07/27 01:49:46;;;;;;;9.20;3.88;;;20.90;85.70;;;;;;5117485;28;20022;-68
2021/07/27 01:52:16;;;;;;;9.20;4.45;;;20.80;85.40;;;;;;5117636;28;20042;-68
2021/07/27 01:54:46;;;;;;;12.20;4.47;;;20.80;85.70;;;;;;5117553;28;20292;-68
2021/07/27 01:57:13;;;;;;;14.57;4.22;;;20.80;84.80;;;;;;5117301;28;20035;-69
2021/07/27 01:59:39;;;;;;;12.02;3.97;;;20.80;83.80;;;;;;5117436;28;20023;-68
2021/07/27 02:02:06;;;;;;;8.70;4.00;;;20.80;84.50;;;;;;5117453;28;20365;-68
2021/07/27 02:04:32;;;;;;;8.13;3.70;;;20.90;84.00;;;;;;5117476;28;20076;-68
2021/07/27 02:06:58;;;;;;;9.57;3.70;;;20.90;84.00;;;;;;5117462;28;20032;-68
2021/07/27 02:09:24;;;;;;;12.05;3.97;;;20.90;83.30;;;;;;5116958;28;20363;-68
2021/07/27 02:11:56;;;;;;;7.80;3.67;;;20.90;83.10;;;;;;5117116;28;20487;-68
2021/07/27 02:14:24;;;;;;;14.77;5.25;;;20.90;84.20;;;;;;5117099;28;20028;-68
2021/07/27 02:16:50;;;;;;;7.30;3.92;;;20.90;84.20;;;;;;5117035;28;20434;-69
2021/07/27 02:19:15;;;;;;;10.15;4.38;;;20.90;83.40;;;;;;5116922;28;20038;-69
2021/07/27 02:21:41;;;;;;;10.38;3.90;;;20.90;83.70;;;;;;5117261;28;20034;-68
2021/07/27 02:24:07;;;;;;;10.60;4.15;;;20.90;83.40;;;;;;5117267;28;20403;-69
2021/07/27 02:26:32;;;;;;;13.23;4.60;;;20.90;83.70;;;;;;5117233;28;20137;-68
2021/07/27 02:28:58;;;;;;;12.30;4.60;;;20.80;83.70;;;;;;5117208;28;20065;-68
2021/07/27 02:31:37;;;;;;;13.23;4.03;;;20.70;84.00;;;;;;5117175;28;20027;-68
2021/07/27 02:34:03;;;;;;;9.75;3.95;;;20.70;83.40;;;;;;5117201;28;20036;-68
2021/07/27 02:36:28;;;;;;;7.20;3.28;;;20.70;84.10;;;;;;5116856;28;20407;-68
2021/07/27 02:38:54;;;;;;;15.02;4.47;;;20.70;83.90;;;;;;5116785;28;20093;-69
2021/07/27 02:41:29;;;;;;;5.75;3.90;;;20.60;83.50;;;;;;5117050;28;20032;-68
2021/07/27 02:43:54;;;;;;;7.75;3.67;;;20.60;84.10;;;;;;5117151;28;20027;-68
2021/07/27 02:46:20;;;;;;;13.50;4.43;;;20.50;84.10;;;;;;5117124;28;20390;-68
2021/07/27 02:48:49;;;;;;;7.13;3.90;;;20.40;84.70;;;;;;5116706;28;20031;-68
2021/07/27 02:51:14;;;;;;;12.25;4.57;;;20.40;84.20;;;;;;5120375;28;20035;-68
2021/07/27 02:53:40;;;;;;;11.77;4.75;;;20.50;84.20;;;;;;5120967;28;20024;-68
2021/07/27 02:56:05;;;;;;;10.70;4.50;;;20.60;83.80;;;;;;5120927;28;20291;-69
2021/07/27 02:58:32;;;;;;;9.68;4.80;;;20.70;83.00;;;;;;5120483;28;20028;-68
2021/07/27 03:00:59;;;;;;;10.82;4.38;;;20.80;83.60;;;;;;5120404;28;20035;-68
2021/07/27 03:03:25;;;;;;;12.52;4.55;;;20.80;82.60;;;;;;5120494;28;20415;-69
2021/07/27 03:06:02;;;;;;;14.52;4.70;;;20.80;83.30;;;;;;5120700;28;20031;-69
2021/07/27 03:11:21;;;;;;;8.32;3.90;;;20.90;83.30;;;;;;5088783;28;20032;-68
2021/07/27 03:13:47;;;;;;;11.45;4.45;;;20.80;84.70;;;;;;5120564;28;20050;-69
2021/07/27 03:16:17;;;;;;;13.15;4.13;;;20.70;84.40;;;;;;5120217;28;20433;-68
2021/07/27 03:18:45;;;;;;;10.30;4.18;;;20.60;83.50;;;;;;5120064;28;20484;-69
2021/07/27 03:21:18;;;;;;;12.77;4.88;;;20.60;84.80;;;;;;5120045;28;20028;-68
2021/07/27 03:23:47;;;;;;;9.32;4.20;;;20.60;84.50;;;;;;5120155;28;20050;-68
2021/07/27 03:26:13;;;;;;;10.02;4.18;;;20.60;85.10;;;;;;5120267;28;20081;-68
2021/07/27 03:28:41;;;;;;;15.30;4.22;;;20.60;85.60;;;;;;5119947;28;20019;-68
2021/07/27 03:31:07;;;;;;;8.93;4.05;;;20.60;85.80;;;;;;5119891;28;20392;-69
2021/07/27 03:33:33;;;;;;;7.32;3.55;;;20.40;87.10;;;;;;5120235;28;20055;-69
2021/07/27 03:35:59;;;;;;;11.55;5.30;;;20.30;87.60;;;;;;5120149;28;20028;-68
2021/07/27 03:38:25;;;;;;;18.27;5.45;;;20.20;87.30;;;;;;5119819;28;20059;-68
2021/07/27 03:40:50;;;;;;;12.80;5.13;;;20.20;87.10;;;;;;5119936;28;20115;-69
2021/07/27 03:43:16;;;;;;;10.57;5.15;;;20.20;88.10;;;;;;5119730;28;20381;-68
2021/07/27 03:45:42;;;;;;;14.02;4.40;;;20.20;88.10;;;;;;5119941;28;20203;-69
2021/07/27 03:48:07;;;;;;;9.10;3.67;;;20.10;88.00;;;;;;5119814;28;20107;-68
2021/07/27 03:50:34;;;;;;;11.02;4.43;;;20.00;88.10;;;;;;5119513;28;20028;-68
2021/07/27 03:53:00;;;;;;;13.52;4.60;;;20.00;88.20;;;;;;5119550;28;20056;-69
2021/07/27 03:55:26;;;;;;;11.93;4.00;;;20.00;88.70;;;;;;5119758;28;20052;-69
2021/07/27 03:57:54;;;;;;;14.05;4.20;;;20.10;89.00;;;;;;5119375;28;20423;-68
2021/07/27 04:00:25;;;;;;;10.15;3.95;;;20.00;89.40;;;;;;5119206;28;20023;-69
2021/07/27 04:02:50;;;;;;;10.73;4.20;;;19.90;89.90;;;;;;5118843;28;20315;-68
2021/07/27 04:05:16;;;;;;;10.57;4.38;;;19.90;87.80;;;;;;5119229;28;20024;-68
2021/07/27 04:07:42;;;;;;;12.35;4.57;;;19.90;87.70;;;;;;5119500;28;20038;-68
2021/07/27 04:10:08;;;;;;;10.25;4.60;;;20.10;86.20;;;;;;5119366;28;20073;-68
2021/07/27 04:12:36;;;;;;;10.40;3.92;;;20.20;84.40;;;;;;5119417;28;20054;-68
2021/07/27 04:15:03;;;;;;;12.73;4.50;;;20.40;84.20;;;;;;5119047;28;20130;-68
2021/07/27 04:17:28;;;;;;;10.15;4.22;;;20.60;83.50;;;;;;5119327;28;20152;-69
2021/07/27 04:19:54;;;;;;;11.73;4.38;;;20.70;83.00;;;;;;5119208;28;20055;-68
2021/07/27 04:22:20;;;;;;;9.02;3.95;;;20.90;83.30;;;;;;5119194;28;20027;-68
2021/07/27 04:24:45;;;;;;;9.35;4.10;;;20.90;84.10;;;;;;5119163;28;20028;-68
2021/07/27 04:27:11;;;;;;;10.32;4.43;;;20.90;84.20;;;;;;5119148;28;20337;-68
2021/07/27 04:29:37;;;;;;;9.20;4.07;;;20.80;83.60;;;;;;5119059;28;20288;-69
2021/07/27 04:32:03;;;;;;;11.02;4.28;;;20.80;84.10;;;;;;5119107;28;20030;-68
2021/07/27 04:34:28;;;;;;;8.32;3.72;;;20.80;84.00;;;;;;5118994;28;20081;-68
2021/07/27 04:36:54;;;;;;;8.23;3.60;;;20.80;83.10;;;;;;5118974;28;20028;-69
2021/07/27 04:39:20;;;;;;;10.25;3.80;;;20.90;83.40;;;;;;5118303;28;20146;-69
2021/07/27 04:41:45;;;;;;;11.77;4.95;;;20.90;84.10;;;;;;5118507;28;20474;-69
2021/07/27 04:44:11;;;;;;;11.63;4.78;;;20.90;85.80;;;;;;5118797;28;20024;-69
2021/07/27 04:46:37;;;;;;;12.65;4.95;;;20.90;84.60;;;;;;5118743;28;20065;-69
2021/07/27 04:49:03;;;;;;;7.47;4.80;;;21.10;85.20;;;;;;5118636;28;20467;-69
2021/07/27 04:51:29;;;;;;;12.75;4.60;;;21.10;85.30;;;;;;5118342;28;20342;-69
2021/07/27 04:54:01;;;;;;;12.80;3.95;;;21.10;86.20;;;;;;5118347;28;20415;-69
2021/07/27 04:56:26;;;;;;;11.25;4.95;;;21.00;85.80;;;;;;5118343;28;20107;-69
2021/07/27 04:58:52;;;;;;;14.60;4.38;;;21.00;85.20;;;;;;5118428;28;20055;-69
2021/07/27 05:01:18;;;;;;;12.15;4.40;;;21.00;87.30;;;;;;5118080;28;20020;-69
2021/07/27 05:03:44;;;;;;;12.07;4.15;;;20.90;87.50;;;;;;5118482;28;20077;-69
2021/07/27 05:06:09;;;;;;;8.57;4.00;;;20.90;87.60;;;;;;5118392;28;20024;-68
2021/07/27 05:08:35;;;;;;;12.05;4.43;;;20.90;88.10;;;;;;5118390;28;20296;-69
2021/07/27 05:11:01;;;;;;;11.10;4.05;;;20.90;85.90;;;;;;5118300;28;20107;-69
2021/07/27 05:13:27;;;;;;;8.90;4.28;;;21.00;87.50;;;;;;5117939;28;20404;-69
2021/07/27 05:15:53;;;;;;;9.50;4.18;;;21.10;87.00;;;;;;5117877;28;20110;-68
2021/07/27 05:18:19;;;;;;;13.25;4.20;;;21.30;87.80;;;;;;5118090;28;20023;-69
2021/07/27 05:20:47;;;;;;;16.40;4.68;;;21.40;87.60;;;;;;5118010;28;20111;-69
2021/07/27 05:23:13;;;;;;;11.82;4.28;;;21.60;85.80;;;;;;5118127;28;20107;-68
2021/07/27 05:25:39;;;;;;;13.00;4.32;;;21.70;85.50;;;;;;5117694;28;20384;-68
2021/07/27 05:28:08;;;;;;;8.98;4.20;;;21.80;84.80;;;;;;5117945;28;20090;-68
2021/07/27 05:30:34;;;;;;;11.05;4.72;;;21.80;85.40;;;;;;5117601;28;20111;-68
2021/07/27 05:33:02;;;;;;;14.45;4.70;;;21.80;83.70;;;;;;5117635;28;20110;-68
2021/07/27 05:35:28;;;;;;;8.73;4.10;;;21.80;81.90;;;;;;5117552;28;20024;-68
2021/07/27 05:37:53;;;;;;;8.40;3.80;;;21.80;81.60;;;;;;5117671;28;20039;-69
2021/07/27 05:40:19;;;;;;;9.15;3.72;;;21.70;81.50;;;;;;5117639;28;20034;-68
2021/07/27 05:42:44;;;;;;;13.48;4.13;;;21.60;81.60;;;;;;5117438;28;20032;-68
2021/07/27 05:45:11;;;;;;;13.25;3.88;;;21.60;82.00;;;;;;5117695;28;20052;-68
2021/07/27 05:47:37;;;;;;;9.43;4.25;;;21.50;82.00;;;;;;5117337;28;20319;-68
2021/07/27 05:50:04;;;;;;;9.05;3.75;;;21.40;82.80;;;;;;5117231;28;20019;-68
2021/07/27 05:52:29;;;;;;;13.30;4.05;;;21.40;82.60;;;;;;5117353;28;20026;-68
2021/07/27 05:54:55;;;;;;;7.50;3.63;;;21.40;82.90;;;;;;5117277;28;20102;-68
2021/07/27 05:57:21;;;;;;;11.95;4.53;;;21.40;82.40;;;;;;5117231;28;20024;-68
2021/07/27 05:59:46;;;;;;;12.77;4.45;;;21.40;82.80;;;;;;5117169;28;20051;-68
2021/07/27 06:02:12;;;;;;;7.47;4.43;;;21.40;82.60;;;;;;5117494;28;20027;-68
2021/07/27 06:04:38;;;;;;;11.07;4.22;;;21.30;82.80;;;;;;5117129;28;20059;-68
2021/07/27 06:07:04;;;;;;;11.07;4.18;;;21.40;82.60;;;;;;5118277;28;20337;-68
2021/07/27 06:09:30;;;;;;;6.95;3.90;;;21.40;82.50;;;;;;5116977;28;20311;-68
2021/07/27 06:11:56;;;;;;;11.10;3.97;;;21.40;82.90;;;;;;5117107;28;20123;-68
2021/07/27 06:14:22;;;;;;;7.65;4.15;;;21.50;81.90;;;;;;5117055;28;20055;-68
2021/07/27 06:16:47;;;;;;;10.68;4.90;;;21.60;82.00;;;;;;5117039;28;20024;-68
2021/07/27 06:19:13;;;;;;;11.38;4.78;;;21.80;82.30;;;;;;5117286;28;20030;-68
2021/07/27 06:21:40;;;;;;;13.38;4.68;;;22.00;81.20;;;;;;5117338;28;20062;-68
2021/07/27 06:24:10;;;;;;;7.65;4.20;;;22.20;80.80;;;;;;5117019;28;20026;-68
2021/07/27 06:26:37;;;;;;;6.50;4.35;;;22.30;80.70;;;;;;5121178;28;20035;-68
2021/07/27 06:29:04;;;;;;;12.10;4.22;;;22.40;80.70;;;;;;5121378;28;20019;-68
2021/07/27 06:31:30;;;;;;;10.48;4.25;;;22.40;81.00;;;;;;5121091;28;20032;-68
2021/07/27 06:33:55;;;;;;;11.38;4.60;;;22.40;81.60;;;;;;5121388;28;20035;-68
2021/07/27 06:36:21;;;;;;;11.00;4.10;;;22.30;80.30;;;;;;5121351;28;20031;-68
2021/07/27 06:38:47;;;;;;;8.65;4.10;;;22.30;80.50;;;;;;5120794;28;20048;-68
2021/07/27 06:41:13;;;;;;;11.68;4.00;;;22.30;79.70;;;;;;5120751;28;20035;-68
2021/07/27 06:43:40;;;;;;;10.77;4.00;;;22.30;80.60;;;;;;5121223;28;20296;-68
2021/07/27 06:46:07;;;;;;;11.80;5.00;;;22.30;81.80;;;;;;5121100;28;20016;-68
2021/07/27 06:48:33;;;;;;;9.30;4.28;;;22.30;82.60;;;;;;5120976;28;20106;-68
2021/07/27 06:51:06;;;;;;;12.65;4.15;;;22.30;81.30;;;;;;5121017;28;20028;-68
2021/07/27 06:53:32;;;;;;;9.68;4.22;;;22.20;82.10;;;;;;5121032;28;20327;-68
2021/07/27 06:55:58;;;;;;;10.73;4.40;;;22.30;85.80;;;;;;5120612;28;20027;-68
2021/07/27 06:58:23;;;;;;;13.40;4.40;;;22.30;86.40;;;;;;5120801;28;20035;-68
2021/07/27 07:00:49;;;;;;;12.43;4.30;;;22.40;85.30;;;;;;5120741;28;20027;-68
2021/07/27 07:03:14;;;;;;;11.40;4.07;;;22.50;83.20;;;;;;5120836;28;20031;-68
2021/07/27 07:05:42;;;;;;;12.55;4.25;;;22.60;84.80;;;;;;5120770;28;20332;-68
2021/07/27 07:08:08;;;;;;;14.73;4.70;;;22.80;84.00;;;;;;5120459;28;20024;-68
2021/07/27 07:10:34;;;;;;;15.13;4.10;;;22.90;83.20;;;;;;5120305;28;20035;-69
2021/07/27 07:12:59;;;;;;;8.65;4.00;;;23.10;82.70;;;;;;5120351;28;20032;-69
2021/07/27 07:15:25;;;;;;;11.35;5.30;;;23.30;83.20;;;;;;5120260;28;20028;-69
2021/07/27 07:17:51;;;;;;;13.07;4.43;;;23.50;81.50;;;;;;5120216;28;20032;-68
2021/07/27 07:20:16;;;;;;;10.15;4.68;;;23.70;80.50;;;;;;5120370;28;20031;-68
2021/07/27 07:22:42;;;;;;;12.10;4.13;;;23.80;81.60;;;;;;5120181;28;20484;-68
2021/07/27 07:25:09;;;;;;;9.88;4.35;;;23.80;78.10;;;;;;5120057;28;20030;-68
2021/07/27 07:27:34;;;;;;;9.50;4.22;;;23.80;78.10;;;;;;5120343;28;20318;-69
2021/07/27 07:30:00;;;;;;;14.65;4.63;;;23.70;83.20;;;;;;5120208;28;20019;-68
2021/07/27 07:32:26;;;;;;;12.05;4.80;;;23.70;80.70;;;;;;5119966;28;20109;-68
2021/07/27 07:34:52;;;;;;;7.75;3.80;;;23.50;80.00;;;;;;5120187;28;20020;-68
2021/07/27 07:37:18;;;;;;;12.70;4.22;;;23.40;81.70;;;;;;5118799;28;20032;-68
2021/07/27 07:39:43;;;;;;;9.52;3.92;;;23.40;81.90;;;;;;5119495;28;20097;-68
2021/07/27 07:42:09;;;;;;;9.93;4.30;;;23.40;82.60;;;;;;5119704;28;20031;-68
2021/07/27 07:44:36;;;;;;;12.05;3.83;;;23.50;82.80;;;;;;5119999;28;20020;-68
2021/07/27 07:47:03;;;;;;;9.57;4.20;;;23.40;81.20;;;;;;5119612;28;20047;-68
2021/07/27 07:49:29;;;;;;;12.38;6.05;;;23.50;79.50;;;;;;5119786;28;20015;-69
2021/07/27 07:51:56;;;;;;;10.98;4.40;;;23.80;79.70;;;;;;5119873;28;20020;-69
2021/07/27 07:54:24;;;;;;;10.57;3.97;;;24.00;78.60;;;;;;5119802;28;20149;-69
2021/07/27 07:56:51;;;;;;;11.75;3.78;;;24.10;80.60;;;;;;5119750;28;20032;-69
2021/07/27 07:59:16;;;;;;;10.52;4.07;;;24.10;79.60;;;;;;5119633;28;20028;-69
2021/07/27 08:01:47;;;;;;;9.23;4.40;;;24.20;79.50;;;;;;5119657;28;20039;-69
2021/07/27 08:04:13;;;;;;;14.60;3.83;;;24.30;77.70;;;;;;5119346;28;20039;-69
2021/07/27 08:06:39;;;;;;;7.82;3.55;;;24.70;77.70;;;;;;5119274;28;20403;-69
2021/07/27 08:09:05;;;;;;;10.95;4.28;;;24.90;78.00;;;;;;5119519;28;20026;-69
2021/07/27 08:11:31;;;;;;;10.70;4.65;;;25.00;77.70;;;;;;5119492;28;20036;-69
2021/07/27 08:13:58;;;;;;;11.18;4.30;;;24.90;79.00;;;;;;5119459;28;20317;-69
2021/07/27 08:16:24;;;;;;;15.77;4.30;;;24.80;79.20;;;;;;5119096;28;20031;-69
2021/07/27 08:18:50;;;;;;;9.40;3.88;;;24.80;79.30;;;;;;5119267;28;20031;-69
2021/07/27 08:21:16;;;;;;;8.85;4.07;;;24.90;77.30;;;;;;5119187;28;20038;-69
2021/07/27 08:23:45;;;;;;;8.68;4.28;;;25.40;74.00;;;;;;5118998;28;20016;-69
2021/07/27 08:26:12;;;;;;;8.65;3.55;;;26.20;74.10;;;;;;5119202;28;20024;-69
2021/07/27 08:28:38;;;;;;;11.15;4.20;;;26.80;71.00;;;;;;5118820;28;20035;-69
2021/07/27 08:31:04;;;;;;;17.05;5.13;;;27.00;68.50;;;;;;5119089;28;20020;-69
2021/07/27 08:33:30;;;;;;;8.63;3.40;;;27.00;68.20;;;;;;5118798;28;20032;-69
2021/07/27 08:35:57;;;;;;;11.18;3.78;;;26.90;69.00;;;;;;5118998;28;20039;-69
2021/07/27 08:38:22;;;;;;;12.18;3.97;;;27.30;70.80;;;;;;5118665;28;20032;-69
2021/07/27 08:40:49;;;;;;;9.52;4.50;;;27.60;71.30;;;;;;5118802;28;20111;-70
2021/07/27 08:43:17;;;;;;;11.20;3.83;;;27.80;70.30;;;;;;5118589;28;20020;-69
2021/07/27 08:45:49;;;;;;;11.05;3.95;;;27.70;71.70;;;;;;5118486;28;20035;-70
2021/07/27 08:48:15;;;;;;;11.35;4.13;;;27.60;70.30;;;;;;5118359;28;20016;-69
2021/07/27 08:50:43;;;;;;;11.48;3.53;;;27.40;67.80;;;;;;5118722;28;20038;-70
2021/07/27 08:53:08;;;;;;;11.93;3.63;;;27.10;71.60;;;;;;5118728;28;20095;-69
2021/07/27 08:55:34;;;;;;;8.43;4.00;;;26.60;71.80;;;;;;5118621;28;20382;-69
2021/07/27 08:58:00;;;;;;;10.70;4.05;;;26.60;71.30;;;;;;5118290;28;20312;-69
2021/07/27 09:00:28;;;;;;;11.10;4.07;;;26.70;70.90;;;;;;5118346;28;20024;-70
2021/07/27 09:03:05;;;;;;;11.90;4.10;;;26.80;70.00;;;;;;5118210;28;20019;-70
2021/07/27 09:05:30;;;;;;;14.15;3.80;;;27.30;71.20;;;;;;5118490;28;20023;-70
2021/07/27 09:08:03;;;;;;;13.10;4.25;;;27.90;68.90;;;;;;5118397;28;20307;-70
2021/07/27 09:10:30;;;;;;;8.52;4.10;;;28.30;66.80;;;;;;5117952;28;20031;-70
2021/07/27 09:13:25;;;;;;;10.23;4.03;;;28.40;69.30;;;;;;5118313;28;20015;-70
2021/07/27 09:15:57;;;;;;;10.77;4.22;;;28.10;69.20;;;;;;5095947;28;20331;-69
2021/07/27 09:18:23;;;;;;;13.13;3.97;;;27.50;71.80;;;;;;5117830;28;20415;-69
2021/07/27 09:20:51;;;;;;;10.60;3.63;;;27.20;72.70;;;;;;5117721;28;20027;-69
2021/07/27 09:23:17;;;;;;;9.27;4.00;;;27.20;74.20;;;;;;5117781;28;20015;-69
2021/07/27 09:25:45;;;;;;;17.13;4.70;;;27.00;74.90;;;;;;5117984;28;20035;-69
2021/07/27 09:28:11;;;;;;;8.73;3.88;;;26.70;74.80;;;;;;5117615;28;20441;-69
2021/07/27 09:30:40;;;;;;;8.90;4.00;;;26.40;75.00;;;;;;5117663;28;20423;-69
2021/07/27 09:33:07;;;;;;;12.88;5.10;;;26.30;73.60;;;;;;5117665;28;20027;-69
2021/07/27 09:35:33;;;;;;;12.75;4.30;;;26.10;73.40;;;;;;5117897;28;20056;-69
2021/07/27 09:38:03;;;;;;;17.42;4.15;;;26.40;74.30;;;;;;5117454;28;20038;-70
2021/07/27 09:40:30;;;;;;;12.50;4.78;;;26.60;72.00;;;;;;5117673;28;20038;-69
2021/07/27 09:42:57;;;;;;;8.55;3.35;;;26.40;75.30;;;;;;5117809;28;20023;-69
2021/07/27 09:45:28;;;;;;;13.02;4.40;;;26.10;77.50;;;;;;5117683;28;20072;-69
2021/07/27 09:47:55;;;;;;;10.77;3.75;;;25.70;77.80;;;;;;5117422;28;20023;-69
2021/07/27 09:50:23;;;;;;;13.57;4.28;;;25.40;77.40;;;;;;5117618;28;20327;-69
2021/07/27 09:52:50;;;;;;;8.98;4.15;;;25.00;77.90;;;;;;5117362;28;20084;-69
2021/07/27 09:55:16;;;;;;;10.20;4.32;;;24.80;79.00;;;;;;5117610;28;20068;-69
2021/07/27 09:57:41;;;;;;;11.13;4.53;;;24.50;80.00;;;;;;5117593;28;20416;-69
2021/07/27 10:00:08;;;;;;;14.32;4.82;;;24.20;82.90;;;;;;5116459;28;20027;-69
2021/07/27 10:02:42;;;;;;;14.10;5.47;;;23.90;83.80;;;;;;5117198;28;20031;-69
2021/07/27 10:05:10;;;;;;;18.63;7.45;;;23.50;86.40;;;;;;5117522;28;20028;-68
2021/07/27 10:07:36;;;;;;;12.00;6.03;;;23.40;88.50;;;;;;5117473;28;20027;-69
2021/07/27 10:10:09;;;;;;;16.88;6.07;;;23.20;92.40;;;;;;5117374;28;20491;-70
2021/07/27 10:12:36;;;;;;;14.05;5.85;;;23.20;94.70;;;;;;5117136;28;20020;-70
2021/07/27 10:15:12;;;;;;;11.80;6.13;;;23.10;92.70;;;;;;5117118;28;20058;-70
2021/07/27 10:17:54;;;;;;;12.32;5.93;;;23.10;93.20;;;;;;5116488;28;20485;-70
2021/07/27 10:20:28;;;;;;;12.68;6.07;;;22.80;92.90;;;;;;5114699;28;20411;-70
2021/07/27 10:22:54;;;;;;;14.50;7.10;;;22.60;93.30;;;;;;5117294;28;20028;-70
2021/07/27 10:25:20;;;;;;;11.35;7.38;;;22.30;94.20;;;;;;5116962;28;20024;-70
2021/07/27 10:27:54;;;;;;;16.30;7.75;;;22.30;95.60;;;;;;5117259;28;20061;-70
2021/07/27 10:30:38;;;;;;;15.38;8.48;;;22.20;97.80;;;;;;5117217;28;20055;-70
2021/07/27 10:33:04;;;;;;;15.63;8.60;;;22.10;95.90;;;;;;5116966;28;20411;-70
2021/07/27 10:35:34;;;;;;;19.23;8.07;;;21.80;95.50;;;;;;5117197;28;20024;-70
2021/07/27 10:38:12;;;;;;;24.25;8.95;;;21.70;95.70;;;;;;5116916;28;20019;-70
2021/07/27 10:40:40;;;;;;;18.10;9.27;;;21.60;96.80;;;;;;5117124;28;20045;-70
2021/07/27 10:43:07;;;;;;;11.90;8.00;;;21.70;97.30;;;;;;5116870;28;20020;-70
2021/07/27 10:45:33;;;;;;;22.77;8.73;;;21.70;98.00;;;;;;5117049;28;20035;-70
2021/07/27 10:48:00;;;;;;;14.18;8.00;;;21.80;98.00;;;;;;5117125;28;20045;-70
2021/07/27 10:50:31;;;;;;;21.30;9.70;;;22.00;97.50;;;;;;5116977;28;20050;-70
2021/07/27 10:53:10;;;;;;;13.15;8.10;;;22.00;97.30;;;;;;5117005;28;20356;-70
2021/07/27 10:55:42;;;;;;;17.88;8.23;;;22.00;97.60;;;;;;5116981;28;20024;-70
2021/07/27 10:58:16;;;;;;;14.98;6.60;;;21.90;96.30;;;;;;5116965;28;20312;-70
2021/07/27 11:00:42;;;;;;;15.30;5.80;;;21.80;94.90;;;;;;5116667;28;20057;-70
2021/07/27 11:03:07;;;;;;;14.07;6.15;;;21.70;97.20;;;;;;5116710;28;20028;-70
2021/07/27 11:05:34;;;;;;;13.88;5.43;;;21.70;96.50;;;;;;5116919;28;20099;-70
2021/07/27 11:08:00;;;;;;;10.52;5.40;;;21.80;96.50;;;;;;5116940;28;20028;-70
2021/07/27 11:10:26;;;;;;;15.35;5.95;;;21.80;96.60;;;;;;5117174;28;20373;-70
2021/07/27 11:12:55;;;;;;;15.48;6.63;;;21.60;97.80;;;;;;5120680;28;20042;-70
2021/07/27 11:15:29;;;;;;;12.60;6.00;;;21.60;97.10;;;;;;5102399;28;20323;-70
2021/07/27 11:17:59;;;;;;;14.57;5.93;;;21.50;98.00;;;;;;5120255;28;20028;-70
2021/07/27 11:20:26;;;;;;;14.15;7.03;;;21.40;98.00;;;;;;5120329;28;20355;-70
2021/07/27 11:22:59;;;;;;;16.35;7.30;;;21.30;98.00;;;;;;5120493;28;20353;-70
2021/07/27 11:25:26;;;;;;;21.80;7.63;;;21.20;98.00;;;;;;5120369;28;20026;-69
2021/07/27 11:27:53;;;;;;;15.60;7.15;;;21.10;98.00;;;;;;5120042;28;20411;-69
2021/07/27 11:30:33;;;;;;;16.42;8.50;;;21.20;98.00;;;;;;5120199;28;20028;-70
2021/07/27 11:33:10;;;;;;;17.85;9.77;;;21.40;98.00;;;;;;5120588;28;20418;-70
2021/07/27 11:36:01;;;;;;;14.35;9.13;;;21.50;98.00;;;;;;5119925;28;20424;-70
2021/07/27 11:38:29;;;;;;;17.85;8.27;;;21.70;98.00;;;;;;5117788;28;20043;-70
2021/07/27 11:41:11;;;;;;;16.55;7.13;;;22.00;98.00;;;;;;5119987;28;20024;-70
2021/07/27 11:43:39;;;;;;;14.00;6.10;;;22.90;98.00;;;;;;5120125;28;20039;-70
2021/07/27 11:46:15;;;;;;;16.02;6.10;;;23.50;98.00;;;;;;5119964;28;20023;-70
2021/07/27 11:48:42;;;;;;;17.48;6.57;;;24.10;94.80;;;;;;5119900;28;20028;-70
2021/07/27 11:51:08;;;;;;;13.75;6.38;;;24.70;96.00;;;;;;5119530;28;20019;-70
2021/07/27 11:53:39;;;;;;;12.25;5.10;;;25.30;91.80;;;;;;5119910;28;20072;-71
2021/07/27 11:56:18;;;;;;;8.75;4.28;;;25.80;89.60;;;;;;5119526;28;20024;-71
2021/07/27 11:58:47;;;;;;;14.18;5.35;;;26.30;89.80;;;;;;5119380;28;20028;-70
2021/07/27 12:01:14;;;;;;;10.00;5.00;;;26.80;86.30;;;;;;5119628;28;20024;-70
2021/07/27 12:03:40;;;;;;;8.00;3.80;;;26.80;86.90;;;;;;5119446;28;20411;-70
2021/07/27 12:06:13;;;;;;;10.75;4.22;;;26.90;84.40;;;;;;5119641;28;20022;-70
2021/07/27 12:08:40;;;;;;;11.10;4.65;;;26.80;86.10;;;;;;5119575;28;20035;-70
2021/07/27 12:11:06;;;;;;;11.40;4.43;;;26.70;81.90;;;;;;5119179;28;20110;-70
2021/07/27 12:13:32;;;;;;;11.63;4.53;;;26.60;81.90;;;;;;5119563;28;20104;-70
2021/07/27 12:15:58;;;;;;;11.90;4.95;;;26.40;81.70;;;;;;5119428;28;20024;-70
2021/07/27 12:18:24;;;;;;;11.70;5.40;;;26.20;86.00;;;;;;5119307;28;20360;-70
2021/07/27 12:20:50;;;;;;;17.75;5.20;;;26.20;88.90;;;;;;5119257;28;20051;-70
2021/07/27 12:23:18;;;;;;;14.60;5.68;;;26.10;89.00;;;;;;5118625;28;20360;-70
2021/07/27 12:25:44;;;;;;;12.82;4.97;;;26.20;90.90;;;;;;5119231;28;20030;-70
2021/07/27 12:28:10;;;;;;;13.95;5.05;;;26.40;88.00;;;;;;5119100;28;20028;-70
2021/07/27 12:30:36;;;;;;;11.02;5.65;;;26.70;89.90;;;;;;5119114;28;20019;-70
2021/07/27 12:33:02;;;;;;;16.13;4.63;;;26.80;89.50;;;;;;5118848;28;20092;-70
2021/07/27 12:35:28;;;;;;;11.20;5.55;;;26.70;88.20;;;;;;5118722;28;20041;-70
2021/07/27 12:37:54;;;;;;;16.58;4.90;;;26.50;86.60;;;;;;5118455;28;20026;-70
2021/07/27 12:40:20;;;;;;;13.10;5.10;;;26.30;87.10;;;;;;5118777;28;20055;-70
2021/07/27 12:42:45;;;;;;;12.20;5.15;;;26.30;87.30;;;;;;5118620;28;20364;-70
2021/07/27 12:45:11;;;;;;;11.85;5.25;;;26.20;89.30;;;;;;5118848;28;20023;-70
2021/07/27 12:47:37;;;;;;;14.68;5.15;;;26.00;86.60;;;;;;5118503;28;20446;-70
2021/07/27 12:50:07;;;;;;;15.50;5.60;;;25.90;90.90;;;;;;5118613;28;20039;-70
2021/07/27 12:52:33;;;;;;;13.88;5.35;;;25.90;87.90;;;;;;5118703;28;20023;-70
2021/07/27 12:54:59;;;;;;;13.15;5.38;;;26.00;88.10;;;;;;5118329;28;20038;-69
2021/07/27 12:57:25;;;;;;;12.35;5.35;;;26.00;87.60;;;;;;5118622;28;20099;-70
2021/07/27 12:59:50;;;;;;;17.98;5.95;;;26.20;92.00;;;;;;5118187;28;20322;-70
2021/07/27 13:02:21;;;;;;;10.27;5.22;;;26.40;91.80;;;;;;5118480;28;20015;-70